Cape Flattery, Washington
Current Conditions -  °F | °C
As of 6:53 AM on Monday 22 Dec 2014 (Local Time) from KUIL Reporting Station
Moderate Fog Moderate Fog  
Wind Chill:   Ceiling: 1800
Heat Index:   Visibility: 0.25mi
Dew Point:   Wind: 0mph
Humidity: 100%   Direction: NA
Pressure: 30.31"   Gusts: NA
Location:  48.3685°N, 124.623°W
Report Text: KUIL 221453Z AUTO 00000KT 1/4SM FG VV018 03/03 A3031 RMK AO2 SLP264 T00280028 53021 $
Loading
Personal Weather Stations






























Interactive Weather Map New forecast layout! Learn more

10-Day Weather Forecast

Advertisements
Track Severe Weather on mobile